createdAt,value
2022-12-07T00:01:23.869Z,98083.44
2022-12-07T00:03:53.584Z,98086.16
2022-12-07T00:06:21.682Z,98083.75
2022-12-07T00:08:49.354Z,98084.59
2022-12-07T00:11:18.931Z,98078.31
2022-12-07T00:13:46.610Z,98081.31
2022-12-07T00:16:16.559Z,98080.34
2022-12-07T00:18:44.345Z,98086.09
2022-12-07T00:21:14.893Z,98094.38
2022-12-07T00:23:43.610Z,98095.22
2022-12-07T00:26:12.197Z,98092.78
2022-12-07T00:28:39.645Z,98091.47
2022-12-07T00:31:12.915Z,98091.69
2022-12-07T00:33:40.030Z,98094.44
2022-12-07T00:36:10.132Z,98095.53
2022-12-07T00:38:39.116Z,98092.78
2022-12-07T00:41:08.965Z,98095.41
2022-12-07T00:43:35.929Z,98090.91
2022-12-07T00:46:02.939Z,98091.75
2022-12-07T00:48:30.059Z,98093.78
2022-12-07T00:50:57.071Z,98095.44
2022-12-07T00:53:24.797Z,98085.63
2022-12-07T00:55:51.866Z,98081.34
2022-12-07T00:58:18.821Z,98087.00
2022-12-07T01:00:45.858Z,98085.81
2022-12-07T01:03:15.330Z,98080.81
2022-12-07T01:05:50.902Z,98073.34
2022-12-07T01:08:17.911Z,98063.06
2022-12-07T01:10:44.878Z,98067.06
2022-12-07T01:13:12.145Z,98058.84
2022-12-07T01:15:43.865Z,98061.31
2022-12-07T01:18:11.339Z,98055.66
2022-12-07T01:20:38.546Z,98056.22
2022-12-07T01:23:05.603Z,98050.44
2022-12-07T01:25:32.501Z,98046.97
2022-12-07T01:27:59.554Z,98046.06
2022-12-07T01:30:26.665Z,98041.03
2022-12-07T01:32:53.754Z,98040.53
2022-12-07T01:35:20.785Z,98029.81
2022-12-07T01:37:47.682Z,98030.41
2022-12-07T01:40:14.627Z,98030.97
2022-12-07T01:42:41.554Z,98027.06
2022-12-07T01:45:47.139Z,98035.44
2022-12-07T01:48:18.202Z,98026.03
2022-12-07T01:50:49.382Z,98024.94
2022-12-07T01:53:17.544Z,98016.41
2022-12-07T01:55:48.149Z,98021.81
2022-12-07T01:58:16.446Z,98005.69
2022-12-07T02:00:43.458Z,98010.53
2022-12-07T02:03:17.001Z,98007.28
2022-12-07T02:05:45.284Z,98016.13
2022-12-07T02:08:14.178Z,98016.28
2022-12-07T02:10:41.482Z,98012.09
2022-12-07T02:13:20.362Z,98018.53
2022-12-07T02:16:01.381Z,98010.69
2022-12-07T02:18:40.880Z,98015.78
2022-12-07T02:21:24.423Z,98016.09
2022-12-07T02:24:28.586Z,98021.47
2022-12-07T02:27:20.018Z,98014.44
2022-12-07T02:29:53.854Z,98016.38
2022-12-07T02:32:42.522Z,98023.25
2022-12-07T02:35:36.784Z,98027.34
2022-12-07T02:38:24.037Z,98026.69
2022-12-07T02:41:14.703Z,98028.16
2022-12-07T02:43:47.100Z,98020.72
2022-12-07T02:46:18.697Z,98019.66
2022-12-07T02:48:47.650Z,98020.63
2022-12-07T02:51:14.666Z,98017.31
2022-12-07T02:53:43.859Z,98017.16
2022-12-07T02:56:29.473Z,98016.72
2022-12-07T02:59:17.260Z,98013.22
2022-12-07T03:01:59.882Z,98008.63
2022-12-07T03:05:00.494Z,98007.94
2022-12-07T03:07:36.131Z,97994.84
2022-12-07T03:10:21.048Z,98001.84
2022-12-07T03:13:26.746Z,98001.44
2022-12-07T03:16:11.833Z,98009.16
2022-12-07T03:18:56.714Z,98009.91
2022-12-07T03:21:32.831Z,98011.34
2022-12-07T03:24:04.387Z,98011.63
2022-12-07T03:26:42.954Z,97999.16
2022-12-07T03:29:14.722Z,98010.41
2022-12-07T03:31:46.489Z,98002.06
2022-12-07T03:34:23.082Z,97997.97
2022-12-07T03:37:19.448Z,97994.91
2022-12-07T03:39:58.896Z,97994.44
2022-12-07T03:42:26.424Z,97999.00
2022-12-07T03:44:53.411Z,97994.22
2022-12-07T03:47:49.530Z,98005.94
2022-12-07T03:50:42.902Z,98009.38
2022-12-07T03:53:19.445Z,98001.50
2022-12-07T03:55:47.512Z,98009.13
2022-12-07T03:58:20.285Z,98009.38
2022-12-07T04:00:48.488Z,98001.66
2022-12-07T04:03:15.550Z,97995.34
2022-12-07T04:05:43.515Z,97995.50
2022-12-07T04:08:10.773Z,97992.53
2022-12-07T04:10:37.781Z,98001.16
2022-12-07T04:13:04.864Z,97989.06
2022-12-07T04:15:31.968Z,97973.16
2022-12-07T04:17:58.859Z,97977.44
2022-12-07T04:20:26.082Z,97981.09
2022-12-07T04:22:53.125Z,97978.34
2022-12-07T04:25:20.038Z,97978.56
2022-12-07T04:27:46.999Z,97975.69
2022-12-07T04:30:13.927Z,97973.81
2022-12-07T04:32:40.902Z,97976.88
2022-12-07T04:35:08.359Z,97976.16
2022-12-07T04:37:35.305Z,97976.06
2022-12-07T04:40:02.527Z,97979.22
2022-12-07T04:42:29.702Z,97987.34
2022-12-07T04:44:56.583Z,97986.41
2022-12-07T04:47:23.451Z,97987.56
2022-12-07T04:49:50.367Z,97982.84
2022-12-07T04:52:17.232Z,97971.66
2022-12-07T04:54:44.113Z,97981.84
2022-12-07T04:57:11.070Z,97978.16
2022-12-07T04:59:41.029Z,97988.06
2022-12-07T05:02:12.173Z,97983.16
2022-12-07T05:04:39.183Z,97992.72
2022-12-07T05:07:06.051Z,97988.91
2022-12-07T05:09:33.018Z,97989.47
2022-12-07T05:11:59.877Z,97992.19
2022-12-07T05:14:26.917Z,97994.94
2022-12-07T05:16:54.650Z,98000.72
2022-12-07T05:19:21.782Z,98001.22
2022-12-07T05:21:49.375Z,97994.34
2022-12-07T05:24:17.990Z,98001.25
2022-12-07T05:26:45.893Z,97994.72
2022-12-07T05:29:15.455Z,97997.69
2022-12-07T05:31:43.354Z,97996.72
2022-12-07T05:34:10.887Z,97992.25
2022-12-07T05:36:38.796Z,97983.19
2022-12-07T05:39:05.916Z,97983.56
2022-12-07T05:41:51.460Z,97987.06
2022-12-07T05:44:18.414Z,97991.09
2022-12-07T05:46:45.399Z,97996.44
2022-12-07T05:49:12.281Z,97995.13
2022-12-07T05:51:39.226Z,97981.31
2022-12-07T05:54:06.223Z,97993.06
2022-12-07T05:56:33.218Z,97987.38
2022-12-07T05:59:19.071Z,97985.91
2022-12-07T06:01:46.155Z,97985.31
2022-12-07T06:04:13.226Z,97991.72
2022-12-07T06:06:40.319Z,97990.78
2022-12-07T06:09:08.041Z,97992.22
2022-12-07T06:11:53.762Z,97988.72
2022-12-07T06:14:20.690Z,97983.53
2022-12-07T06:16:48.999Z,97983.09
2022-12-07T06:19:15.980Z,97985.41
2022-12-07T06:21:42.951Z,97987.06
2022-12-07T06:24:14.310Z,97991.38
2022-12-07T06:26:41.757Z,97989.72
2022-12-07T06:29:09.440Z,97991.56
2022-12-07T06:31:37.803Z,97992.16
2022-12-07T06:34:13.268Z,98003.91
2022-12-07T06:36:40.481Z,97996.63
2022-12-07T06:39:10.175Z,98010.16
2022-12-07T06:41:38.006Z,98004.91
2022-12-07T06:44:06.248Z,98007.09
2022-12-07T06:46:33.747Z,97997.50
2022-12-07T06:49:00.786Z,97992.28
2022-12-07T06:51:28.099Z,98000.78
2022-12-07T06:53:55.023Z,97993.81
2022-12-07T06:56:22.079Z,97999.63
2022-12-07T06:58:48.940Z,98005.25
2022-12-07T07:01:18.797Z,98003.50
2022-12-07T07:03:47.202Z,98009.16
2022-12-07T07:06:15.200Z,98006.09
2022-12-07T07:08:43.060Z,98007.84
2022-12-07T07:11:10.819Z,98001.38
2022-12-07T07:13:38.429Z,97997.28
2022-12-07T07:16:06.523Z,98004.75
2022-12-07T07:18:33.604Z,98010.94
2022-12-07T07:21:00.613Z,98006.59
2022-12-07T07:23:27.786Z,97995.50
2022-12-07T07:25:54.794Z,98004.09
2022-12-07T07:28:21.704Z,97998.84
2022-12-07T07:30:48.675Z,98002.66
2022-12-07T07:33:16.218Z,98006.59
2022-12-07T07:35:43.155Z,98005.88
2022-12-07T07:38:10.199Z,98008.75
2022-12-07T07:40:37.929Z,98005.97
2022-12-07T07:43:04.890Z,98009.13
2022-12-07T07:45:31.836Z,98008.66
2022-12-07T07:47:58.800Z,98014.09
2022-12-07T07:50:25.702Z,98015.53
2022-12-07T07:52:53.164Z,98015.91
2022-12-07T07:55:20.449Z,98016.47
2022-12-07T07:57:54.203Z,98015.88
2022-12-07T08:00:22.400Z,98014.81
2022-12-07T08:02:49.332Z,98015.50
2022-12-07T08:05:16.845Z,98025.44
2022-12-07T08:07:44.559Z,98026.81
2022-12-07T08:10:13.261Z,98026.19
2022-12-07T08:13:01.873Z,98017.47
2022-12-07T08:15:30.816Z,98011.13
2022-12-07T08:17:57.877Z,98012.34
2022-12-07T08:20:24.930Z,98004.50
2022-12-07T08:22:52.036Z,98009.84
2022-12-07T08:25:19.185Z,98012.66
2022-12-07T08:27:46.233Z,98005.75
2022-12-07T08:30:13.292Z,98008.47
2022-12-07T08:32:40.292Z,98012.66
2022-12-07T08:35:07.518Z,98006.41
2022-12-07T08:37:34.810Z,98013.06
2022-12-07T08:40:02.124Z,98015.94
2022-12-07T08:42:30.983Z,98006.00
2022-12-07T08:44:58.461Z,98014.81
2022-12-07T08:47:26.404Z,98001.59
2022-12-07T08:49:55.450Z,98006.13
2022-12-07T08:52:22.899Z,98001.03
2022-12-07T08:54:50.257Z,98003.66
2022-12-07T08:57:17.544Z,98007.38
2022-12-07T08:59:44.487Z,97999.78
2022-12-07T09:02:11.411Z,97992.22
2022-12-07T09:04:38.410Z,97990.97
2022-12-07T09:07:05.757Z,97983.75
2022-12-07T09:09:33.022Z,97981.38
2022-12-07T09:12:00.107Z,97986.19
2022-12-07T09:14:27.172Z,97978.59
2022-12-07T09:16:54.083Z,97967.25
2022-12-07T09:19:21.200Z,97975.22
2022-12-07T09:21:48.124Z,97978.22
2022-12-07T09:24:15.206Z,97969.97
2022-12-07T09:26:42.157Z,97967.47
2022-12-07T09:29:09.053Z,97967.66
2022-12-07T09:31:38.387Z,97964.63
2022-12-07T09:34:06.847Z,97963.88
2022-12-07T09:36:34.496Z,97960.97
2022-12-07T09:39:01.768Z,97960.56
2022-12-07T09:41:31.395Z,97957.44
2022-12-07T09:44:22.999Z,97960.25
2022-12-07T10:18:42.378Z,97931.44
2022-12-07T10:21:10.112Z,97930.94
2022-12-07T10:23:39.435Z,97926.41
2022-12-07T10:26:29.611Z,97927.94
2022-12-07T10:28:59.919Z,97927.59
2022-12-07T10:31:26.954Z,97913.25
2022-12-07T10:33:59.414Z,97915.69
2022-12-07T10:36:35.852Z,97911.66
2022-12-07T10:39:11.674Z,97905.38
2022-12-07T10:41:55.622Z,97898.75
2022-12-07T10:44:25.253Z,97896.34
2022-12-07T10:47:00.922Z,97899.13
2022-12-07T10:49:56.705Z,97898.19
2022-12-07T10:52:32.338Z,97897.88
2022-12-07T10:55:22.402Z,97896.66
2022-12-07T10:57:52.165Z,97897.88
2022-12-07T11:00:26.585Z,97896.06
2022-12-07T11:02:53.530Z,97891.00
2022-12-07T11:05:50.601Z,97890.13
2022-12-07T11:08:17.422Z,97882.84
2022-12-07T11:11:13.489Z,97879.16
2022-12-07T11:13:57.326Z,97869.13
2022-12-07T11:16:52.940Z,97866.53
2022-12-07T11:19:22.768Z,97862.94
2022-12-07T11:22:14.414Z,97861.59
2022-12-07T11:25:15.085Z,97858.19
2022-12-07T11:28:29.774Z,97856.75
2022-12-07T11:31:06.031Z,97861.63
2022-12-07T11:34:01.427Z,97858.41
2022-12-07T11:36:37.118Z,97862.34
2022-12-07T11:39:16.715Z,97854.13
2022-12-07T11:41:44.296Z,97857.28
2022-12-07T11:44:40.873Z,97849.97
2022-12-07T11:47:21.515Z,97857.25
2022-12-07T11:50:07.524Z,97854.53
2022-12-07T11:52:50.251Z,97843.03
2022-12-07T11:55:30.583Z,97845.69
2022-12-07T11:58:22.681Z,97850.47
2022-12-07T12:00:53.423Z,97854.06
2022-12-07T12:03:31.450Z,97842.28
2022-12-07T12:05:58.711Z,97844.91
2022-12-07T12:15:00.065Z,97829.47
2022-12-07T12:17:48.074Z,97834.03
2022-12-07T12:20:52.377Z,97831.72
2022-12-07T12:23:25.482Z,97815.47
2022-12-07T12:25:57.112Z,97826.00
2022-12-07T12:28:32.664Z,97820.59
2022-12-07T12:31:09.594Z,97828.78
2022-12-07T12:33:38.402Z,97822.69
2022-12-07T12:36:17.281Z,97821.25
2022-12-07T12:39:08.211Z,97828.31
2022-12-07T12:42:00.933Z,97824.78
2022-12-07T12:44:30.533Z,97816.78
2022-12-07T12:47:48.844Z,97819.63
2022-12-07T12:50:22.438Z,97817.41
2022-12-07T12:53:05.939Z,97820.03
2022-12-07T12:55:44.702Z,97816.31
2022-12-07T12:58:20.576Z,97820.41
2022-12-07T13:00:50.144Z,97820.19
2022-12-07T13:03:32.928Z,97814.63
2022-12-07T13:06:25.649Z,97814.28
2022-12-07T13:08:55.528Z,97809.56
2022-12-07T13:11:36.605Z,97806.13
2022-12-07T13:14:41.458Z,97803.97
2022-12-07T13:17:33.659Z,97795.56
2022-12-07T13:20:05.982Z,97795.56
2022-12-07T13:22:32.771Z,97796.06
2022-12-07T13:25:12.016Z,97801.88
2022-12-07T13:27:42.169Z,97802.25
2022-12-07T13:30:16.609Z,97799.47
2022-12-07T13:32:43.966Z,97800.28
2022-12-07T13:35:38.579Z,97800.72
2022-12-07T13:38:16.172Z,97799.16
2022-12-07T13:40:43.106Z,97803.72
2022-12-07T13:43:16.363Z,97803.06
2022-12-07T13:45:49.365Z,97801.31
2022-12-07T13:48:49.965Z,97798.41
2022-12-07T13:51:22.165Z,97809.44
2022-12-07T13:53:51.816Z,97804.88
2022-12-07T13:56:19.002Z,97809.59
2022-12-07T13:58:46.110Z,97809.59
2022-12-07T14:01:14.591Z,97811.16
2022-12-07T14:03:41.627Z,97816.75
2022-12-07T14:06:16.832Z,97816.31
2022-12-07T14:08:44.731Z,97812.19
2022-12-07T14:11:19.935Z,97810.84
2022-12-07T14:14:03.217Z,97817.00
2022-12-07T14:16:40.057Z,97824.88
2022-12-07T14:19:48.646Z,97818.44
2022-12-07T14:22:36.455Z,97814.19
2022-12-07T14:25:17.784Z,97808.69
2022-12-07T14:27:57.412Z,97812.34
2022-12-07T14:30:29.688Z,97806.59
2022-12-07T14:33:06.694Z,97806.06
2022-12-07T14:35:34.017Z,97803.38
2022-12-07T14:38:01.101Z,97802.75
2022-12-07T14:40:29.948Z,97793.19
2022-12-07T14:43:10.100Z,97799.38
2022-12-07T14:45:37.020Z,97798.25
2022-12-07T14:53:43.842Z,97800.59
2022-12-07T14:56:10.810Z,97803.22
2022-12-07T14:58:37.840Z,97808.38
2022-12-07T15:01:04.918Z,97809.56
2022-12-07T15:03:31.891Z,97809.75
2022-12-07T15:05:59.225Z,97807.16
2022-12-07T15:08:27.271Z,97816.59
2022-12-07T15:10:54.369Z,97812.38
2022-12-07T15:13:39.734Z,97821.50
2022-12-07T15:16:09.418Z,97813.09
2022-12-07T15:18:36.276Z,97818.22
2022-12-07T15:21:04.095Z,97823.03
2022-12-07T15:23:32.334Z,97821.38
2022-12-07T15:25:59.267Z,97817.50
2022-12-07T15:28:26.172Z,97814.78
2022-12-07T15:30:53.130Z,97819.75
2022-12-07T15:33:20.075Z,97824.97
2022-12-07T15:35:47.116Z,97827.31
2022-12-07T15:38:14.095Z,97816.84
2022-12-07T15:40:41.803Z,97825.94
2022-12-07T15:43:31.546Z,97828.56
2022-12-07T15:45:58.586Z,97830.50
2022-12-07T15:48:28.652Z,97825.53
2022-12-07T15:51:04.517Z,97831.06
2022-12-07T15:53:31.476Z,97826.34
2022-12-07T15:55:58.338Z,97834.09
2022-12-07T15:58:25.308Z,97833.28
2022-12-07T16:00:52.211Z,97826.09
2022-12-07T16:03:19.331Z,97836.06
2022-12-07T16:05:53.455Z,97831.22
2022-12-07T16:08:20.675Z,97838.38
2022-12-07T16:10:47.793Z,97831.47
2022-12-07T16:13:14.761Z,97828.31
2022-12-07T16:15:42.845Z,97823.06
2022-12-07T16:18:10.196Z,97839.78
2022-12-07T16:20:37.063Z,97837.69
2022-12-07T16:23:04.073Z,97846.66
2022-12-07T16:25:30.912Z,97846.81
2022-12-07T16:27:57.898Z,97842.94
2022-12-07T16:30:24.802Z,97845.41
2022-12-07T16:32:51.687Z,97846.13
2022-12-07T16:35:18.760Z,97845.97
2022-12-07T16:37:45.653Z,97845.28
2022-12-07T16:40:13.191Z,97849.28
2022-12-07T16:42:40.270Z,97855.91
2022-12-07T16:45:07.558Z,97853.84
2022-12-07T16:47:34.530Z,97855.91
2022-12-07T16:50:01.351Z,97855.34
2022-12-07T16:52:28.311Z,97847.91
2022-12-07T16:54:55.169Z,97852.72
2022-12-07T16:57:23.711Z,97842.94
2022-12-07T16:59:52.456Z,97842.66
2022-12-07T17:02:20.376Z,97843.63
2022-12-07T17:04:47.262Z,97845.84
2022-12-07T17:07:14.165Z,97842.09
2022-12-07T17:09:41.121Z,97858.34
2022-12-07T17:12:08.119Z,97861.22
2022-12-07T17:14:53.827Z,97865.38
2022-12-07T17:17:20.800Z,97867.44
2022-12-07T17:19:47.716Z,97865.22
2022-12-07T17:22:14.778Z,97858.19
2022-12-07T17:24:42.160Z,97864.78
2022-12-07T17:27:09.453Z,97857.72
2022-12-07T17:29:36.420Z,97857.59
2022-12-07T17:32:03.373Z,97865.56
2022-12-07T17:34:30.443Z,97872.03
2022-12-07T17:36:57.367Z,97875.38
2022-12-07T17:39:24.249Z,97869.03
2022-12-07T17:42:09.944Z,97877.41
2022-12-07T17:44:36.878Z,97872.03
2022-12-07T17:47:04.245Z,97872.16
2022-12-07T17:49:31.554Z,97872.63
2022-12-07T17:52:17.248Z,97870.66
2022-12-07T17:54:44.578Z,97866.25
2022-12-07T17:57:11.651Z,97866.50
2022-12-07T17:59:39.055Z,97868.84
2022-12-07T18:02:06.254Z,97867.75
2022-12-07T18:04:33.872Z,97873.69
2022-12-07T18:07:00.936Z,97872.22
2022-12-07T18:09:27.877Z,97860.56
2022-12-07T18:11:54.830Z,97854.50
2022-12-07T18:14:21.875Z,97860.94
2022-12-07T18:16:50.237Z,97857.25
2022-12-07T18:19:17.580Z,97857.78
2022-12-07T18:21:45.027Z,97865.91
2022-12-07T18:24:13.857Z,97867.00
2022-12-07T18:26:41.559Z,97863.56
2022-12-07T18:29:10.769Z,97866.97
2022-12-07T18:31:37.705Z,97858.84
2022-12-07T18:34:12.278Z,97863.13
2022-12-07T18:36:42.460Z,97865.63
2022-12-07T18:39:09.957Z,97864.38
2022-12-07T18:41:36.929Z,97870.19
2022-12-07T18:44:05.263Z,97871.28
2022-12-07T18:46:33.403Z,97869.63
2022-12-07T18:49:00.819Z,97876.25
2022-12-07T18:51:32.410Z,97872.56
2022-12-07T18:54:04.898Z,97864.56
2022-12-07T18:56:32.301Z,97870.22
2022-12-07T18:59:20.312Z,97873.81
2022-12-07T19:01:50.555Z,97874.34
2022-12-07T19:04:18.256Z,97876.44
2022-12-07T19:06:47.180Z,97864.91
2022-12-07T19:09:14.668Z,97867.38
2022-12-07T19:11:51.076Z,97869.00
2022-12-07T19:14:28.797Z,97873.19
2022-12-07T19:16:59.460Z,97867.38
2022-12-07T19:19:37.554Z,97869.72
2022-12-07T19:22:05.887Z,97868.03
2022-12-07T19:24:33.502Z,97867.38
2022-12-07T19:27:00.623Z,97869.59
2022-12-07T19:29:31.410Z,97861.75
2022-12-07T19:31:59.868Z,97859.56
2022-12-07T19:34:27.274Z,97860.50
2022-12-07T19:36:54.225Z,97858.59
2022-12-07T19:39:21.434Z,97852.91
2022-12-07T19:41:48.551Z,97859.50
2022-12-07T19:44:17.910Z,97860.31
2022-12-07T19:46:47.127Z,97847.00
2022-12-07T19:49:16.278Z,97855.22
2022-12-07T19:51:54.659Z,97852.00
2022-12-07T19:54:23.813Z,97858.50
2022-12-07T19:56:52.651Z,97862.53
2022-12-07T19:59:21.959Z,97860.84
2022-12-07T20:01:49.591Z,97864.81
2022-12-07T20:04:20.276Z,97855.06
2022-12-07T20:06:49.821Z,97856.81
2022-12-07T20:09:17.504Z,97854.59
2022-12-07T20:12:03.130Z,97848.78
2022-12-07T20:14:30.590Z,97855.25
2022-12-07T20:16:58.452Z,97845.31
2022-12-07T20:19:25.556Z,97842.72
2022-12-07T20:21:52.856Z,97848.91
2022-12-07T20:24:22.825Z,97846.25
2022-12-07T20:26:51.903Z,97842.91
2022-12-07T20:29:22.098Z,97844.59
2022-12-07T20:31:50.193Z,97846.75
2022-12-07T20:34:17.829Z,97849.81
2022-12-07T20:36:45.677Z,97854.47
2022-12-07T20:39:12.817Z,97844.06
2022-12-07T20:41:59.290Z,97850.94
2022-12-07T20:44:26.372Z,97844.78
2022-12-07T20:46:53.382Z,97853.19
2022-12-07T20:49:20.576Z,97851.19
2022-12-07T20:51:48.040Z,97853.72
2022-12-07T20:54:15.240Z,97854.69
2022-12-07T20:56:42.510Z,97864.06
2022-12-07T20:59:13.871Z,97857.72
2022-12-07T21:01:41.010Z,97857.19
2022-12-07T21:04:08.232Z,97854.34
2022-12-07T21:06:35.684Z,97859.13
2022-12-07T21:09:02.676Z,97864.66
2022-12-07T21:11:31.480Z,97865.50
2022-12-07T21:13:58.704Z,97857.63
2022-12-07T21:16:28.786Z,97862.34
2022-12-07T21:18:57.334Z,97863.69
2022-12-07T21:21:24.849Z,97861.66
2022-12-07T21:23:58.097Z,97859.75
2022-12-07T21:26:27.895Z,97854.78
2022-12-07T21:28:56.020Z,97857.19
2022-12-07T21:31:23.231Z,97857.44
2022-12-07T21:33:50.527Z,97854.56
2022-12-07T21:36:23.473Z,97863.63
2022-12-07T21:38:51.167Z,97862.91
2022-12-07T21:41:20.916Z,97870.91
2022-12-07T21:43:48.560Z,97868.03
2022-12-07T21:46:16.787Z,97873.03
2022-12-07T21:48:44.341Z,97863.81
2022-12-07T21:51:13.574Z,97874.00
2022-12-07T21:53:42.127Z,97870.13
2022-12-07T21:56:18.159Z,97862.84
2022-12-07T21:58:45.867Z,97869.19
2022-12-07T22:01:24.223Z,97866.88
2022-12-07T22:03:52.138Z,97878.03
2022-12-07T22:06:22.309Z,97878.84
2022-12-07T22:08:50.601Z,97873.88
2022-12-07T22:11:17.561Z,97877.00
2022-12-07T22:14:09.880Z,97867.19
2022-12-07T22:16:39.211Z,97877.25
2022-12-07T22:19:07.374Z,97875.75
2022-12-07T22:21:35.101Z,97875.91
2022-12-07T22:24:03.280Z,97880.88
2022-12-07T22:26:30.285Z,97877.25
2022-12-07T22:28:57.233Z,97868.69
2022-12-07T22:31:24.366Z,97864.66
2022-12-07T22:33:51.794Z,97864.97
2022-12-07T22:36:19.219Z,97871.69
2022-12-07T22:38:47.165Z,97868.00
2022-12-07T22:41:13.993Z,97871.16
2022-12-07T22:43:40.885Z,97858.47
2022-12-07T22:46:07.872Z,97861.38
2022-12-07T22:48:34.926Z,97862.00
2022-12-07T22:51:02.398Z,97863.09
2022-12-07T22:53:29.652Z,97863.50
2022-12-07T22:55:56.747Z,97867.13
2022-12-07T22:58:23.897Z,97857.38
2022-12-07T23:00:54.106Z,97862.09
2022-12-07T23:03:21.146Z,97861.19
2022-12-07T23:05:49.604Z,97858.84
2022-12-07T23:08:18.109Z,97859.09
2022-12-07T23:10:47.828Z,97856.78
2022-12-07T23:13:33.010Z,97859.25
2022-12-07T23:16:01.397Z,97858.31
2022-12-07T23:18:31.007Z,97854.47
2022-12-07T23:20:58.211Z,97860.69
2022-12-07T23:23:25.861Z,97852.66
2022-12-07T23:25:53.436Z,97857.50
2022-12-07T23:28:20.438Z,97852.25
2022-12-07T23:30:47.324Z,97851.84
2022-12-07T23:33:14.393Z,97845.91
2022-12-07T23:35:42.036Z,97860.91
2022-12-07T23:38:08.932Z,97849.19
2022-12-07T23:40:36.903Z,97849.72
2022-12-07T23:43:03.827Z,97854.56
2022-12-07T23:45:30.711Z,97862.09
2022-12-07T23:47:57.562Z,97855.59
2022-12-07T23:50:24.473Z,97862.13
2022-12-07T23:52:51.348Z,97859.75
2022-12-07T23:55:18.391Z,97867.31
2022-12-07T23:57:45.340Z,97869.41
